International Virtual Aviation Organisation

Eastern Europe and Northern Asia MCD

 

Карточка аэропорта URMG

Внимание!
Информация на этой странице в стадии наполнения.
Если вы не увидели какой-то информации, или заметили неточность - пожалуйста сообщите нам!
Спасибо!
Команда RU-STAFF
Название аэропорта Грозный
Название аэропорта (англ.)Grozniy
Превышение545 ft. (166.1 m.)
Координаты43°23.292', 45°41.988'
Высота перехода1700
Эшелон переходаFL80
Коды ответчика1000
Зона ОрВДРостов-на-Дону РПИ (URRV)
Данные METARURMG 101200Z 30003MPS 270V340 9999 BKN030 10/05 Q1018 R26/090070 NOSIG RMK QFE748/0998
Проноз погоды (TAF)NODATA
NOTAMshow/hide NOTAM
AWOS   TABLE

Информация о ВПП

ВПП Длина ВПП (м.) Покрытие Курс ВПП Частота ILS
082505Асфальтобетон80 
262505Асфальтобетон260108.7

Диспетчерские позиции




Спутниковое изображение